Cody, WY (82414)

5:35 PM MDT on August 29, 2015 (GMT -0600)
Cody WY, Cody DITWIT Weather @5230 ft | | Change Station
CLOSE
Current Station
Personal Weather Station
Location: Cody, WY
Elevation: 5135 ft
Nearby Weather Stations
Active Advisory: Fire Weather Warning

Elev 5135 ft 44.49 °N, 108.99 °W | Updated 13 seconds ago

Clear
Clear
85.2 °F
Feels Like 82 °F
N
2.0
Wind Variable Wind from NNW
Gusts 4.0 mph

Today
High -- | Low -- °F
--% Chance of Precip.
Yesterday
High -- | Low -- °F
Precip. -- in
6:35 AM 7:58 PM
Full, 100% visible
Pressure 29.98 in
Visibility 10.0 miles
Clouds Clear
Heat Index 82 °F
Dew Point 41 °F
Humidity 21%
Rainfall 0.00 in
Snow Depth Not available.
UV 3 out of 12
Pollen 9.50 out of 12
Air Quality Not available.
Flu Activity Not available.
METAR KCOD 292315Z AUTO 34004KT 10SM CLR 31/04 A2998 RMK AO1
Pressure 29.98 in
Visibility 10.0 miles
Clouds Clear
Heat Index 82 °F
Dew Point 41 °F
Humidity 21%
Rainfall 0.00 in
Snow Depth Not available.
UV 3 out of 12
Pollen 9.50 out of 12
Air Quality Not available.
Flu Activity Not available.
METAR KCOD 292315Z AUTO 34004KT 10SM CLR 31/04 A2998 RMK AO1

10-Day Weather Forecast

×

Almanac

Astronomy

Aug. 29, 2015 Rise Set
Actual Time
Civil Twilight
Nautical Twilight
Astronomical Twilight
Moon
Length of Visible Light
Length of Day
Tomorrow will be .
, % of the Moon is Illuminated

Today's Extremes

State Highs State Lows

Community

WunderPhotos

Upload Photos

1,850,783 photos uploaded!

WunderBlogs® & News

Nearby

Air Quality

  Air Quality AQ Index Pollutant
Not available.

Snow Depth

Station Depth Elevation

Earthquake Activity

City Distance Mag. Time & Date
Minimum magnitude displayed is 2.5.

Coastal Water Temperatures

Place Temperature

Stations

Nearby Weather Stations

Station Location Temp. Windchill Dew Point Humidity Wind Precip. Elev Updated Type
                   
Fire Weather Warning
Statement as of 1:23 PM MDT on August 29, 2015

... Red flag warning remains in effect until 9 PM MDT this evening
for gusty wind... low humidity... hot temperatures... and a Haines
index of 6...

* wind... becoming southwest 10 to 15 mph with occasional gusts
to25 mph early this afternoon in basins and sheltered areas.
Elsewhere... widespread southwest wind increasing to 15 to 25
mph with gusts around 35 mph after 1500.

* Maximum temperatures... 93 to 98... 86 to 91 mountains.

* Humidity... 7 to 15 percent.

* Haines index... 6

* impacts... any fires that develop will likely spread rapidly.
Outdoor burning is not recommended and campfires need to be
out cold.

Precautionary/preparedness actions...

A red flag warning means that critical fire weather conditions
are either occurring now... or will shortly. A combination of
strong winds... low relative humidity... and warm temperatures will
create extreme fire behavior.